Time;durP1;ratioP1;P1;durP2;ratioP2;P2;SDS_P1;SDS_P2;PMS_P1;PMS_P2;Temp;Humidity;BMP_temperature;BMP_pressure;BME280_temperature;BME280_humidity;BME280_pressure;Samples;Min_cycle;Max_cycle;Signal;HPM_P1;HPM_P2
2023/06/06 00:01:45;;;;;;;0.70;0.70;;;;;;;12.71;100.00;91342.00;5030694;28;20455;-67
2023/06/06 00:04:11;;;;;;;1.00;0.98;;;;;;;12.71;100.00;91336.66;5030889;28;20036;-68
2023/06/06 00:06:37;;;;;;;1.00;1.00;;;;;;;12.70;100.00;91338.56;5029203;28;20029;-67
2023/06/06 00:09:04;;;;;;;0.80;0.80;;;;;;;12.67;100.00;91347.19;5030458;28;20029;-67
2023/06/06 00:11:30;;;;;;;1.25;1.25;;;;;;;12.60;100.00;91342.28;5030561;28;20033;-67
2023/06/06 00:13:56;;;;;;;0.88;0.88;;;;;;;12.54;100.00;91342.75;5030547;28;20025;-67
2023/06/06 00:16:27;;;;;;;1.08;1.08;;;;;;;12.45;100.00;91332.03;5030523;28;20491;-67
2023/06/06 00:18:53;;;;;;;1.00;1.00;;;;;;;12.45;100.00;91331.25;5030151;28;20042;-67
2023/06/06 00:21:21;;;;;;;0.90;0.90;;;;;;;12.41;100.00;91330.31;5030509;28;20492;-67
2023/06/06 00:23:47;;;;;;;1.20;1.20;;;;;;;12.34;100.00;91338.00;5030502;28;20029;-67
2023/06/06 00:26:13;;;;;;;0.80;0.80;;;;;;;12.24;100.00;91333.72;5030492;28;20032;-67
2023/06/06 00:28:38;;;;;;;0.80;0.80;;;;;;;12.15;100.00;91344.34;5030321;28;20506;-66
2023/06/06 00:31:03;;;;;;;0.82;0.82;;;;;;;12.10;100.00;91343.69;5030377;28;20084;-67
2023/06/06 00:33:29;;;;;;;0.80;0.80;;;;;;;12.04;100.00;91342.25;5030373;28;20033;-67
2023/06/06 00:35:54;;;;;;;1.27;1.27;;;;;;;11.94;100.00;91341.41;5030338;28;20030;-67
2023/06/06 00:38:20;;;;;;;0.80;0.80;;;;;;;11.89;100.00;91341.56;5030154;28;20079;-67
2023/06/06 00:40:45;;;;;;;0.80;0.80;;;;;;;11.86;100.00;91342.16;5030265;28;20041;-67
2023/06/06 00:43:11;;;;;;;1.50;1.40;;;;;;;11.78;100.00;91328.75;5032429;28;20051;-66
2023/06/06 00:45:36;;;;;;;0.80;0.80;;;;;;;11.71;100.00;91329.19;5033877;28;20033;-67
2023/06/06 00:48:02;;;;;;;0.80;0.80;;;;;;;11.65;100.00;91317.84;5033690;28;20034;-66
2023/06/06 00:50:28;;;;;;;1.67;1.35;;;;;;;11.65;100.00;91325.06;5033714;28;20175;-66
2023/06/06 00:52:54;;;;;;;0.80;0.80;;;;;;;11.63;100.00;91328.03;5033566;28;20028;-66
2023/06/06 00:55:20;;;;;;;1.13;1.13;;;;;;;11.62;100.00;91321.13;5033631;28;20033;-67
2023/06/06 00:57:47;;;;;;;1.35;1.00;;;;;;;11.53;100.00;91312.31;5033456;28;20028;-67
2023/06/06 01:00:14;;;;;;;1.15;1.15;;;;;;;11.51;100.00;91313.69;5033444;28;20025;-67
2023/06/06 01:02:43;;;;;;;1.10;1.10;;;;;;;11.49;100.00;91316.66;5033482;28;20029;-67
2023/06/06 01:05:11;;;;;;;0.80;0.80;;;;;;;11.38;100.00;91315.34;5033396;28;20506;-67
2023/06/06 01:07:36;;;;;;;1.10;1.10;;;;;;;11.33;100.00;91318.13;5033372;28;20060;-67
2023/06/06 01:10:11;;;;;;;0.80;0.80;;;;;;;11.35;100.00;91313.28;5033293;28;20481;-67
2023/06/06 01:13:11;;;;;;;0.80;0.80;;;;;;;11.29;100.00;91311.84;5033318;28;20557;-67
2023/06/06 01:15:45;;;;;;;1.10;1.02;;;;;;;11.22;100.00;91308.81;5040408;28;20042;-67
2023/06/06 01:18:11;;;;;;;1.17;1.17;;;;;;;11.17;100.00;91314.25;5032921;28;20052;-67
2023/06/06 01:20:39;;;;;;;1.10;1.10;;;;;;;11.22;100.00;91317.59;5033207;28;20034;-68
2023/06/06 01:23:05;;;;;;;1.50;1.42;;;;;;;11.21;100.00;91313.38;5033408;28;20036;-67
2023/06/06 01:25:35;;;;;;;0.80;0.80;;;;;;;11.18;100.00;91319.28;5033113;28;20061;-68
2023/06/06 01:28:04;;;;;;;2.60;2.17;;;;;;;11.15;100.00;91322.53;5032905;28;20112;-66
2023/06/06 01:30:31;;;;;;;1.30;1.25;;;;;;;11.12;100.00;91317.81;5032989;28;20033;-67
2023/06/06 01:33:32;;;;;;;1.00;1.00;;;;;;;11.05;100.00;91323.59;5032906;28;20036;-68
2023/06/06 01:36:20;;;;;;;1.75;1.65;;;;;;;11.00;100.00;91322.88;5032837;28;20037;-67
2023/06/06 01:38:55;;;;;;;0.80;0.80;;;;;;;10.96;100.00;91322.72;5032644;28;20083;-67
2023/06/06 01:41:23;;;;;;;1.20;0.98;;;;;;;10.91;100.00;91317.50;5032611;28;20029;-66
2023/06/06 01:43:51;;;;;;;1.00;1.00;;;;;;;10.89;100.00;91322.34;5032684;28;20112;-67
2023/06/06 01:46:17;;;;;;;1.27;1.27;;;;;;;10.88;100.00;91323.41;5032924;28;20068;-67
2023/06/06 01:48:44;;;;;;;0.80;0.80;;;;;;;10.88;100.00;91318.09;5032501;28;20030;-67
2023/06/06 01:51:09;;;;;;;0.80;0.80;;;;;;;10.94;100.00;91316.91;5032602;28;20030;-67
2023/06/06 01:53:35;;;;;;;0.80;0.80;;;;;;;10.88;100.00;91315.44;5032361;28;20553;-67
2023/06/06 01:56:01;;;;;;;0.90;0.90;;;;;;;10.81;100.00;91315.06;5032387;28;20034;-67
2023/06/06 01:58:26;;;;;;;0.80;0.80;;;;;;;10.86;100.00;91309.63;5032237;28;20022;-67
2023/06/06 02:00:51;;;;;;;1.00;1.00;;;;;;;10.85;100.00;91317.91;5032375;28;20423;-66
2023/06/06 02:03:17;;;;;;;0.80;0.80;;;;;;;10.80;100.00;91311.63;5032407;28;20036;-66
2023/06/06 02:05:42;;;;;;;0.90;0.90;;;;;;;10.84;100.00;91319.78;5143507;23;20245;-67
2023/06/06 02:08:07;;;;;;;0.90;0.90;;;;;;;10.88;100.00;91323.41;4993098;28;20065;-67
2023/06/06 02:10:33;;;;;;;1.38;1.27;;;;;;;10.83;100.00;91320.88;4993148;28;20037;-67
2023/06/06 02:12:58;;;;;;;0.80;0.80;;;;;;;10.79;100.00;91319.91;4993137;28;20076;-67
2023/06/06 02:15:29;;;;;;;0.82;0.82;;;;;;;10.76;100.00;91323.16;4992970;28;20495;-67
2023/06/06 02:17:55;;;;;;;0.90;0.90;;;;;;;10.69;100.00;91320.13;4992953;28;20022;-67
2023/06/06 02:20:20;;;;;;;1.60;1.50;;;;;;;10.64;100.00;91317.56;4992882;28;20027;-67
2023/06/06 02:22:46;;;;;;;0.90;0.90;;;;;;;10.52;100.00;91320.72;4992870;28;20038;-67
2023/06/06 02:25:12;;;;;;;1.30;1.30;;;;;;;10.47;100.00;91328.84;4992783;28;20030;-67
2023/06/06 02:27:38;;;;;;;1.00;1.00;;;;;;;10.31;100.00;91331.00;4992832;28;20026;-67
2023/06/06 02:30:07;;;;;;;1.10;1.10;;;;;;;10.21;100.00;91339.19;4992820;28;20035;-67
2023/06/06 02:32:33;;;;;;;2.35;2.15;;;;;;;10.09;100.00;91333.53;4992739;28;20060;-67
2023/06/06 02:35:03;;;;;;;0.80;0.80;;;;;;;9.94;100.00;91339.94;4992568;28;20030;-66
2023/06/06 02:37:28;;;;;;;1.00;1.00;;;;;;;9.80;100.00;91333.81;4997655;28;20134;-68
2023/06/06 02:39:54;;;;;;;0.80;0.80;;;;;;;9.72;100.00;91339.78;5001935;28;20479;-67
2023/06/06 02:42:19;;;;;;;0.80;0.80;;;;;;;9.77;100.00;91337.03;5000812;28;20046;-67
2023/06/06 02:44:45;;;;;;;0.95;0.95;;;;;;;9.69;100.00;91340.38;4997890;28;20030;-67
2023/06/06 02:47:10;;;;;;;0.90;0.90;;;;;;;9.66;100.00;91340.97;5001981;28;20455;-67
2023/06/06 02:49:36;;;;;;;0.80;0.80;;;;;;;9.63;100.00;91347.66;5002123;28;20473;-67
2023/06/06 02:52:02;;;;;;;0.80;0.80;;;;;;;9.64;100.00;91349.25;5000528;28;20022;-67
2023/06/06 02:54:27;;;;;;;1.02;1.02;;;;;;;9.59;100.00;91341.34;5002124;28;20484;-66
2023/06/06 02:56:53;;;;;;;1.20;1.20;;;;;;;9.61;100.00;91333.88;5001570;28;20033;-66
2023/06/06 02:59:18;;;;;;;1.30;1.30;;;;;;;9.63;100.00;91341.56;5000655;28;20096;-67
2023/06/06 03:01:48;;;;;;;0.90;0.90;;;;;;;9.67;100.00;91342.56;5002412;28;20022;-67
2023/06/06 03:04:14;;;;;;;1.13;1.10;;;;;;;9.86;100.00;91336.09;5001627;28;20105;-67
2023/06/06 03:06:41;;;;;;;4.88;2.33;;;;;;;9.88;100.00;91338.44;4999510;28;20146;-68
2023/06/06 03:09:07;;;;;;;0.90;0.90;;;;;;;9.89;100.00;91340.00;5002202;28;20018;-67
2023/06/06 03:11:33;;;;;;;1.08;0.95;;;;;;;9.97;100.00;91336.69;5001428;28;20494;-67
2023/06/06 03:13:59;;;;;;;1.10;1.10;;;;;;;10.04;100.00;91336.28;5000409;28;20494;-67
2023/06/06 03:16:26;;;;;;;1.48;1.45;;;;;;;10.26;100.00;91349.72;5002389;28;20030;-67
2023/06/06 03:18:55;;;;;;;1.10;1.10;;;;;;;10.51;100.00;91348.41;5001178;28;20110;-68
2023/06/06 03:21:20;;;;;;;0.90;0.90;;;;;;;10.72;100.00;91349.56;5000125;28;20030;-67
2023/06/06 03:23:47;;;;;;;0.90;0.90;;;;;;;10.93;100.00;91346.47;5002022;28;20105;-67
2023/06/06 03:26:13;;;;;;;2.90;1.48;;;;;;;11.05;100.00;91344.88;5001067;28;20034;-67
2023/06/06 03:28:39;;;;;;;0.80;0.80;;;;;;;11.19;100.00;91338.69;5000343;28;20025;-67
2023/06/06 03:31:06;;;;;;;1.50;1.42;;;;;;;11.33;100.00;91336.78;5001983;28;20022;-67
2023/06/06 03:33:32;;;;;;;0.80;0.80;;;;;;;11.51;100.00;91340.34;5000810;28;20062;-68
2023/06/06 03:35:58;;;;;;;1.25;1.23;;;;;;;11.69;100.00;91342.03;5000293;28;20400;-67
2023/06/06 03:38:24;;;;;;;2.08;1.73;;;;;;;11.76;100.00;91341.59;5002112;28;20056;-67
2023/06/06 03:40:49;;;;;;;1.98;1.77;;;;;;;11.81;100.00;91349.50;5000443;28;20061;-67
2023/06/06 03:43:15;;;;;;;1.45;1.35;;;;;;;11.84;100.00;91341.69;5000742;28;20133;-67
2023/06/06 03:45:40;;;;;;;0.90;0.90;;;;;;;11.78;100.00;91350.06;5002049;28;20030;-67
2023/06/06 03:48:06;;;;;;;1.20;1.20;;;;;;;11.93;100.00;91352.38;4997353;28;20019;-67
2023/06/06 03:50:32;;;;;;;1.02;1.02;;;;;;;12.01;100.00;91350.88;5001297;28;20385;-68
2023/06/06 03:52:58;;;;;;;1.35;1.27;;;;;;;11.85;100.00;91347.81;5001461;28;20504;-67
2023/06/06 03:55:24;;;;;;;1.63;1.55;;;;;;;11.89;100.00;91341.56;4999684;28;20037;-68
2023/06/06 03:57:50;;;;;;;1.67;1.58;;;;;;;12.01;100.00;91341.00;5001339;28;20022;-67
2023/06/06 04:00:17;;;;;;;1.33;1.33;;;;;;;12.09;100.00;91350.91;5001087;28;20038;-67
2023/06/06 04:02:52;;;;;;;0.90;0.90;;;;;;;12.25;100.00;91349.41;4999751;28;20033;-68
2023/06/06 04:05:18;;;;;;;2.25;1.50;;;;;;;12.41;100.00;91352.44;4999985;28;20427;-67
2023/06/06 04:07:44;;;;;;;1.02;1.02;;;;;;;12.65;100.00;91357.41;5001332;28;20026;-67
2023/06/06 04:10:10;;;;;;;0.90;0.90;;;;;;;12.76;100.00;91361.34;5001176;28;20030;-67
2023/06/06 04:12:36;;;;;;;1.63;1.52;;;;;;;12.81;100.00;91355.88;5001261;28;20069;-67
2023/06/06 04:15:02;;;;;;;1.00;1.00;;;;;;;12.81;100.00;91361.22;4999394;28;20084;-67
2023/06/06 04:17:28;;;;;;;0.80;0.80;;;;;;;12.95;100.00;91365.63;5002727;28;20026;-69
2023/06/06 04:19:55;;;;;;;1.67;1.58;;;;;;;12.88;100.00;91358.84;5004267;28;20041;-68
2023/06/06 04:22:24;;;;;;;1.17;1.17;;;;;;;12.96;100.00;91353.84;5003272;28;20034;-68
2023/06/06 04:24:50;;;;;;;0.90;0.90;;;;;;;13.16;100.00;91356.69;5001497;28;20022;-68
2023/06/06 04:27:16;;;;;;;0.90;0.90;;;;;;;13.09;100.00;91351.00;5004169;28;20072;-67
2023/06/06 04:29:42;;;;;;;3.22;2.53;;;;;;;13.12;100.00;91344.28;5005134;28;20033;-68
2023/06/06 04:32:13;;;;;;;0.90;0.90;;;;;;;13.35;100.00;91344.94;5003367;28;20400;-67
2023/06/06 04:34:45;;;;;;;0.80;0.80;;;;;;;13.64;100.00;91346.97;5003615;28;20049;-67
2023/06/06 04:37:13;;;;;;;0.80;0.80;;;;;;;13.85;100.00;91344.41;5003518;28;20022;-67
2023/06/06 04:39:39;;;;;;;1.08;1.08;;;;;;;14.23;100.00;91350.63;5003201;28;20036;-67
2023/06/06 04:42:06;;;;;;;6.38;2.58;;;;;;;13.94;100.00;91350.53;5004865;28;20117;-67
2023/06/06 04:44:41;;;;;;;1.83;1.73;;;;;;;14.05;100.00;91349.91;5003810;28;20033;-67
2023/06/06 04:47:07;;;;;;;1.17;1.17;;;;;;;13.84;100.00;91348.19;5000237;28;20089;-67
2023/06/06 04:49:35;;;;;;;0.93;0.93;;;;;;;14.14;100.00;91346.41;5003816;28;20024;-67
2023/06/06 04:52:03;;;;;;;0.80;0.80;;;;;;;14.28;100.00;91336.28;5004745;28;20381;-66
2023/06/06 04:54:30;;;;;;;1.60;1.50;;;;;;;14.34;100.00;91340.34;5000533;28;20523;-68
2023/06/06 04:56:56;;;;;;;1.33;1.30;;;;;;;14.47;100.00;91334.03;5003422;28;20026;-68
2023/06/06 04:59:22;;;;;;;1.05;1.05;;;;;;;14.08;100.00;91332.41;5004456;28;20030;-68
2023/06/06 05:01:48;;;;;;;6.38;1.75;;;;;;;14.31;100.00;91327.59;5002750;28;20026;-69
2023/06/06 05:04:15;;;;;;;2.45;2.25;;;;;;;14.55;100.00;91325.19;5003437;28;20073;-69
2023/06/06 05:06:40;;;;;;;2.85;1.30;;;;;;;14.42;100.00;91328.81;5004128;28;20100;-69
2023/06/06 05:09:07;;;;;;;1.00;1.00;;;;;;;13.89;100.00;91326.66;5002335;28;20027;-69
2023/06/06 05:11:36;;;;;;;0.90;0.90;;;;;;;14.19;100.00;91332.84;5003361;28;20424;-69
2023/06/06 05:14:02;;;;;;;1.00;1.00;;;;;;;14.53;100.00;91334.66;5004264;28;20038;-68
2023/06/06 05:16:28;;;;;;;1.00;1.00;;;;;;;14.80;100.00;91333.38;4999839;28;20022;-67
2023/06/06 05:18:54;;;;;;;1.65;1.55;;;;;;;14.77;100.00;91334.81;5006478;28;20459;-66
2023/06/06 05:21:20;;;;;;;2.63;2.42;;;;;;;15.11;100.00;91331.13;5013469;28;20030;-66
2023/06/06 05:23:46;;;;;;;1.00;1.00;;;;;;;15.05;100.00;91327.09;5013701;28;20025;-66
2023/06/06 05:26:11;;;;;;;1.85;1.75;;;;;;;14.79;100.00;91323.78;5004477;28;20041;-67
2023/06/06 05:28:38;;;;;;;4.95;2.15;;;;;;;14.79;100.00;91321.09;5003350;28;20484;-67
2023/06/06 05:31:07;;;;;;;1.00;1.00;;;;;;;14.80;100.00;91331.50;5003436;28;20090;-67
2023/06/06 05:33:33;;;;;;;1.55;1.45;;;;;;;15.45;100.00;91327.41;5001932;28;20061;-67
2023/06/06 05:35:58;;;;;;;2.05;1.95;;;;;;;15.83;100.00;91331.88;5003472;28;20060;-65
2023/06/06 05:38:25;;;;;;;2.05;1.45;;;;;;;15.88;100.00;91326.28;5003071;28;20034;-67
2023/06/06 05:40:51;;;;;;;4.00;2.70;;;;;;;16.08;100.00;91333.50;5001778;28;20038;-68
2023/06/06 05:43:16;;;;;;;1.05;1.05;;;;;;;16.90;100.00;91330.06;5002358;28;20080;-66
2023/06/06 05:45:42;;;;;;;1.38;1.33;;;;;;;19.88;100.00;91328.91;5002602;28;20053;-67
2023/06/06 05:48:07;;;;;;;1.38;1.27;;;;;;;21.61;85.63;91321.41;4994327;28;20088;-67
2023/06/06 05:50:33;;;;;;;1.10;1.10;;;;;;;23.57;64.94;91324.25;4993722;28;20046;-67
2023/06/06 05:52:58;;;;;;;1.58;1.38;;;;;;;25.15;55.64;91318.22;4993651;28;20061;-65
2023/06/06 05:55:32;;;;;;;1.08;1.08;;;;;;;26.31;51.24;91320.34;5011631;28;20487;-65
2023/06/06 05:57:58;;;;;;;1.60;1.50;;;;;;;27.04;48.30;91318.47;5012951;28;20034;-65
2023/06/06 06:00:25;;;;;;;0.93;0.93;;;;;;;26.96;49.13;91325.13;5012754;28;20040;-65
2023/06/06 06:02:51;;;;;;;0.88;0.88;;;;;;;28.46;44.80;91324.59;5012782;28;20037;-66
2023/06/06 06:05:20;;;;;;;2.72;1.15;;;;;;;29.80;42.34;91325.84;5012623;28;20077;-66
2023/06/06 06:07:47;;;;;;;1.73;1.63;;;;;;;29.44;40.96;91323.66;5012715;28;20087;-66
2023/06/06 06:10:16;;;;;;;1.48;1.38;;;;;;;29.80;40.80;91331.31;5012556;28;20514;-66
2023/06/06 06:12:42;;;;;;;1.00;1.00;;;;;;;31.08;38.37;91325.34;5012555;28;20407;-65
2023/06/06 06:15:08;;;;;;;5.40;1.55;;;;;;;32.40;37.59;91323.00;5012254;28;20038;-66
2023/06/06 06:17:34;;;;;;;1.60;1.50;;;;;;;32.52;36.55;91330.53;5012507;28;20029;-65
2023/06/06 06:20:07;;;;;;;0.90;0.90;;;;;;;31.83;36.91;91325.22;5012327;28;20491;-66
2023/06/06 06:22:33;;;;;;;0.77;0.77;;;;;;;32.82;35.83;91331.28;5012366;28;20033;-66
2023/06/06 06:24:58;;;;;;;1.67;1.23;;;;;;;32.96;35.51;91328.91;5012342;28;20052;-68
2023/06/06 06:27:24;;;;;;;1.08;0.98;;;;;;;33.32;34.32;91325.09;5012349;28;20041;-68
2023/06/06 06:29:50;;;;;;;1.60;1.50;;;;;;;30.28;37.68;91324.59;5012594;28;20056;-67
2023/06/06 06:32:17;;;;;;;3.80;0.80;;;;;;;31.76;35.97;91325.41;5012105;28;20033;-66
2023/06/06 06:34:43;;;;;;;0.68;0.68;;;;;;;32.05;35.82;91314.44;5012285;28;20048;-65
2023/06/06 06:37:08;;;;;;;1.63;1.52;;;;;;;30.82;37.46;91311.41;5011992;28;20108;-67
2023/06/06 06:39:34;;;;;;;0.68;0.60;;;;;;;31.09;37.35;91313.97;4996133;28;20058;-67
2023/06/06 06:41:59;;;;;;;0.60;0.60;;;;;;;32.13;35.83;91312.28;4992233;28;20081;-66
2023/06/06 06:44:25;;;;;;;0.75;0.75;;;;;;;33.02;35.62;91307.88;4992395;28;20027;-66
2023/06/06 06:46:50;;;;;;;1.00;0.70;;;;;;;34.10;34.30;91306.06;4992461;28;20085;-67
2023/06/06 06:49:15;;;;;;;1.58;1.33;;;;;;;33.55;34.87;91304.69;4991675;28;20081;-66
2023/06/06 06:51:41;;;;;;;0.68;0.68;;;;;;;34.21;34.34;91309.22;4992386;28;20072;-66
2023/06/06 06:54:10;;;;;;;1.08;1.08;;;;;;;35.46;32.44;91310.28;4991968;28;20054;-68
2023/06/06 06:56:36;;;;;;;0.88;0.88;;;;;;;33.47;35.82;91303.41;5010196;28;20057;-66
2023/06/06 06:59:03;;;;;;;1.02;1.02;;;;;;;34.21;33.93;91295.41;5011609;28;20129;-67
2023/06/06 07:01:29;;;;;;;1.23;1.15;;;;;;;32.67;34.82;91300.63;5011570;28;20029;-65
2023/06/06 07:03:54;;;;;;;0.70;0.70;;;;;;;32.36;37.18;91298.31;5011271;28;20505;-67
2023/06/06 07:06:22;;;;;;;0.88;0.88;;;;;;;32.50;36.27;91301.88;5011430;28;20042;-67
2023/06/06 07:08:49;;;;;;;0.80;0.80;;;;;;;31.23;37.81;91302.66;5011394;28;20048;-67
2023/06/06 07:11:14;;;;;;;3.72;1.33;;;;;;;30.11;39.37;91293.56;5011488;28;20033;-66
2023/06/06 07:13:39;;;;;;;0.85;0.85;;;;;;;30.25;39.97;91295.25;5011451;28;20030;-67
2023/06/06 07:16:05;;;;;;;3.20;1.55;;;;;;;31.18;39.46;91303.16;5011185;28;20108;-67
2023/06/06 07:18:30;;;;;;;1.35;1.35;;;;;;;31.58;38.25;91303.03;5011019;28;20056;-70
2023/06/06 07:20:56;;;;;;;1.25;1.05;;;;;;;32.68;37.33;91304.91;5002975;28;20495;-69
2023/06/06 07:23:21;;;;;;;2.10;1.52;;;;;;;32.72;36.33;91308.34;4991855;28;20078;-70
2023/06/06 07:25:47;;;;;;;1.13;1.13;;;;;;;32.17;35.93;91304.69;4991807;28;20034;-69
2023/06/06 07:28:13;;;;;;;1.85;1.55;;;;;;;33.38;36.38;91300.53;4991926;28;20030;-69
2023/06/06 07:30:39;;;;;;;2.85;1.05;;;;;;;33.48;35.13;91302.94;5003452;28;20029;-69
2023/06/06 07:33:04;;;;;;;2.38;1.92;;;;;;;32.74;35.88;91297.63;5011388;28;20034;-69
2023/06/06 07:35:32;;;;;;;0.70;0.70;;;;;;;33.33;36.05;91297.09;5000567;28;20029;-69
2023/06/06 07:37:59;;;;;;;0.98;0.98;;;;;;;33.23;34.80;91294.63;4991712;28;20408;-69
2023/06/06 07:40:24;;;;;;;0.50;0.50;;;;;;;32.26;36.33;91296.59;4994051;28;20113;-69
2023/06/06 07:42:50;;;;;;;0.80;0.80;;;;;;;31.04;37.88;91303.44;5002510;28;20075;-69
2023/06/06 07:45:16;;;;;;;0.77;0.75;;;;;;;31.96;36.15;91299.75;4997652;28;20411;-69
2023/06/06 07:47:41;;;;;;;0.75;0.75;;;;;;;29.78;39.17;91309.03;4996578;28;20030;-69
2023/06/06 07:50:07;;;;;;;3.45;1.60;;;;;;;30.29;39.75;91302.22;5008440;28;20026;-68
2023/06/06 07:52:33;;;;;;;0.85;0.85;;;;;;;30.35;39.16;91297.03;5008305;28;20040;-69
2023/06/06 07:54:59;;;;;;;1.20;1.20;;;;;;;30.08;39.67;91308.91;5002135;28;20398;-69
2023/06/06 07:57:25;;;;;;;0.75;0.75;;;;;;;28.24;41.64;91307.63;5015287;28;20522;-69
2023/06/06 07:59:51;;;;;;;0.90;0.90;;;;;;;28.10;43.88;91316.00;5015134;28;20045;-69
2023/06/06 08:02:16;;;;;;;1.75;1.63;;;;;;;28.82;43.00;91321.41;5015032;28;20400;-69
2023/06/06 08:04:47;;;;;;;1.83;1.73;;;;;;;28.42;42.98;91315.69;5014433;28;20040;-69
2023/06/06 08:07:13;;;;;;;1.38;1.23;;;;;;;29.95;41.24;91309.91;5015041;28;20029;-69
2023/06/06 08:09:39;;;;;;;7.53;1.67;;;;;;;29.92;40.47;91314.25;5015028;28;20025;-69
2023/06/06 08:12:05;;;;;;;0.60;0.60;;;;;;;28.25;42.66;91317.41;5013594;28;20466;-69
2023/06/06 08:14:33;;;;;;;0.98;0.98;;;;;;;28.89;42.68;91311.19;5014886;28;20029;-69
2023/06/06 08:16:58;;;;;;;36.47;1.60;;;;;;;26.87;45.12;91313.88;5014805;28;20033;-69
2023/06/06 08:19:24;;;;;;;0.70;0.70;;;;;;;25.93;47.95;91315.44;5014569;28;20038;-69
2023/06/06 08:21:49;;;;;;;1.08;1.08;;;;;;;24.59;50.93;91306.06;5014704;28;20480;-69
2023/06/06 08:24:15;;;;;;;1.02;0.93;;;;;;;25.33;50.58;91308.09;5014514;28;20065;-69
2023/06/06 08:26:40;;;;;;;1.00;1.00;;;;;;;27.51;47.68;91309.91;5014666;28;20030;-69
2023/06/06 08:29:05;;;;;;;3.33;1.15;;;;;;;28.09;44.72;91303.53;5013183;28;20101;-69
2023/06/06 08:31:31;;;;;;;1.00;1.00;;;;;;;29.10;43.60;91299.13;5014415;28;20079;-69
2023/06/06 08:33:57;;;;;;;1.58;1.50;;;;;;;30.86;41.82;91308.56;5014359;28;20506;-70
2023/06/06 08:36:22;;;;;;;1.10;1.10;;;;;;;31.47;39.78;91303.28;5014777;28;20048;-69
2023/06/06 08:38:48;;;;;;;1.45;1.10;;;;;;;30.40;40.40;91299.28;5014221;28;20415;-69
2023/06/06 08:41:14;;;;;;;0.80;0.80;;;;;;;29.31;41.96;91302.72;5014651;28;20436;-70
2023/06/06 08:43:40;;;;;;;1.27;1.23;;;;;;;31.74;40.50;91308.56;5014391;28;20105;-70
2023/06/06 08:46:06;;;;;;;1.02;1.00;;;;;;;32.80;37.94;91303.38;5014180;28;20108;-70
2023/06/06 08:48:34;;;;;;;1.13;0.80;;;;;;;32.76;37.64;91297.97;5014587;28;20033;-69
2023/06/06 08:51:01;;;;;;;0.93;0.93;;;;;;;33.13;37.94;91304.00;5014328;28;20029;-70
2023/06/06 08:53:26;;;;;;;3.30;0.85;;;;;;;34.58;37.56;91308.81;5014208;28;20052;-70
2023/06/06 08:55:55;;;;;;;4.38;2.30;;;;;;;34.79;35.23;91306.03;5014036;28;20033;-70
2023/06/06 08:58:21;;;;;;;0.80;0.80;;;;;;;34.06;36.63;91305.41;5029228;28;20458;-70
2023/06/06 09:00:49;;;;;;;4.32;1.55;;;;;;;34.89;36.26;91306.13;5013972;28;20494;-70
2023/06/06 09:03:16;;;;;;;0.60;0.60;;;;;;;35.78;36.03;91302.69;5013154;28;20038;-70
2023/06/06 09:05:42;;;;;;;0.80;0.80;;;;;;;32.82;37.08;91304.50;5013780;28;20045;-70
2023/06/06 09:08:08;;;;;;;0.73;0.73;;;;;;;32.35;39.14;91288.50;5013779;28;20518;-69
2023/06/06 09:10:33;;;;;;;1.48;1.08;;;;;;;33.56;36.44;91290.47;5013763;28;20033;-70
2023/06/06 09:12:59;;;;;;;0.80;0.80;;;;;;;34.02;36.98;91290.19;5013728;28;20068;-68
2023/06/06 09:15:25;;;;;;;2.42;1.88;;;;;;;33.34;37.27;91289.59;5013928;28;20069;-68
2023/06/06 09:17:54;;;;;;;3.97;1.02;;;;;;;34.11;34.97;91290.28;5013715;28;20121;-69
2023/06/06 09:20:21;;;;;;;3.17;1.63;;;;;;;32.34;38.48;91281.44;5013586;28;20033;-69
2023/06/06 09:22:48;;;;;;;0.98;0.98;;;;;;;30.41;39.36;91279.63;5013662;28;20030;-69
2023/06/06 09:25:21;;;;;;;1.50;1.35;;;;;;;30.20;40.64;91280.06;5013452;28;20026;-69
2023/06/06 09:27:48;;;;;;;3.05;2.10;;;;;;;30.75;40.83;91286.03;5013488;28;20033;-69
2023/06/06 09:30:24;;;;;;;1.00;0.95;;;;;;;32.79;40.11;91286.06;5013551;28;20038;-69
2023/06/06 09:32:58;;;;;;;0.65;0.65;;;;;;;33.79;38.51;91285.81;5013507;28;20431;-69
2023/06/06 09:35:33;;;;;;;1.27;0.90;;;;;;;33.21;35.97;91294.31;5004791;28;20510;-69
2023/06/06 09:38:13;;;;;;;0.90;0.90;;;;;;;31.75;38.84;91282.59;4995495;28;20061;-70
2023/06/06 09:40:50;;;;;;;1.40;1.30;;;;;;;33.61;37.47;91287.16;5001556;28;20068;-68
2023/06/06 09:43:22;;;;;;;1.00;0.95;;;;;;;35.12;35.89;91278.75;5013286;28;20479;-67
2023/06/06 09:45:58;;;;;;;1.02;0.98;;;;;;;34.95;36.23;91276.66;4998837;28;20080;-67
2023/06/06 09:48:28;;;;;;;0.90;0.90;;;;;;;33.94;35.01;91276.63;4996917;28;20030;-67
2023/06/06 09:50:54;;;;;;;1.38;1.27;;;;;;;31.75;38.08;91277.09;5005956;28;20065;-67
2023/06/06 09:53:24;;;;;;;15.20;1.80;;;;;;;33.33;36.38;91277.81;5013112;28;20100;-68
2023/06/06 09:55:51;;;;;;;0.70;0.70;;;;;;;31.09;38.76;91278.22;5000970;28;20022;-68
2023/06/06 09:58:20;;;;;;;1.08;1.08;;;;;;;29.74;41.30;91273.44;4993386;28;20054;-68
2023/06/06 10:00:47;;;;;;;0.80;0.80;;;;;;;28.40;42.72;91267.97;4993274;28;20548;-67
2023/06/06 10:03:18;;;;;;;1.08;1.08;;;;;;;28.53;43.61;91267.03;4999725;28;20026;-67
2023/06/06 10:05:48;;;;;;;1.80;1.70;;;;;;;29.68;43.14;91255.16;4998401;28;20093;-66
2023/06/06 10:08:18;;;;;;;2.53;1.08;;;;;;;30.82;41.84;91253.72;4993250;28;20026;-66
2023/06/06 10:10:46;;;;;;;1.00;1.00;;;;;;;31.69;40.90;91243.00;4993128;28;20030;-67
2023/06/06 10:13:19;;;;;;;2.78;1.20;;;;;;;33.23;38.10;91240.25;4998376;28;20037;-67
2023/06/06 10:15:45;;;;;;;3.70;1.27;;;;;;;31.83;40.73;91252.91;5002592;28;20118;-68
2023/06/06 10:18:12;;;;;;;1.40;1.30;;;;;;;32.43;38.16;91248.53;5001634;28;20113;-68
2023/06/06 10:20:38;;;;;;;1.17;1.17;;;;;;;32.12;37.71;91247.41;5004406;28;21289;-68
2023/06/06 10:23:04;;;;;;;1.55;0.95;;;;;;;32.56;40.17;91248.56;4998595;28;20105;-68
2023/06/06 10:25:31;;;;;;;0.80;0.80;;;;;;;32.57;38.46;91254.84;5002010;28;20112;-69
2023/06/06 10:28:30;;;;;;;1.38;0.93;;;;;;;33.54;38.49;91247.97;5002771;28;20471;-69
2023/06/06 10:31:06;;;;;;;1.05;0.98;;;;;;;33.27;38.04;91245.66;5001548;28;20026;-69
2023/06/06 10:33:50;;;;;;;1.02;1.02;;;;;;;33.02;39.25;91246.44;5000505;28;20018;-70
2023/06/06 10:36:17;;;;;;;0.98;0.98;;;;;;;32.85;40.75;91245.00;5001546;28;20030;-69
2023/06/06 10:39:20;;;;;;;1.92;1.45;;;;;;;33.20;38.26;91234.88;5000926;28;20027;-69
2023/06/06 10:41:57;;;;;;;0.90;0.90;;;;;;;32.82;36.39;91240.34;5002444;28;20018;-69
2023/06/06 10:44:35;;;;;;;0.98;0.98;;;;;;;31.91;37.64;91225.97;5002595;28;20265;-69
2023/06/06 10:47:30;;;;;;;1.10;1.02;;;;;;;30.08;36.88;91240.31;5002657;28;20196;-69
2023/06/06 10:50:07;;;;;;;1.95;1.08;;;;;;;26.64;43.33;91235.25;5001513;28;20026;-69
2023/06/06 10:53:06;;;;;;;2.40;1.83;;;;;;;28.30;42.94;91231.38;5000513;28;20045;-69
2023/06/06 10:55:32;;;;;;;1.02;1.02;;;;;;;29.20;41.16;91226.19;5001230;28;20051;-69
2023/06/06 10:58:21;;;;;;;4.65;0.90;;;;;;;30.57;40.41;91242.44;5002396;28;20018;-69
2023/06/06 11:00:49;;;;;;;10.38;1.40;;;;;;;31.05;38.88;91227.28;4998766;28;20065;-69
2023/06/06 11:03:38;;;;;;;0.82;0.82;;;;;;;30.89;38.37;91230.78;5000885;28;20075;-69
2023/06/06 11:06:11;;;;;;;1.13;1.02;;;;;;;31.12;37.31;91221.63;4997766;28;20065;-69
2023/06/06 11:08:38;;;;;;;;;;;;;;;31.17;37.77;91230.13;5000995;28;20029;-69
2023/06/06 11:11:20;;;;;;;0.80;0.80;;;;;;;31.21;37.45;91224.56;5002266;28;19917;-69
2023/06/06 11:13:53;;;;;;;1.00;1.00;;;;;;;32.10;35.64;91219.56;4993159;28;20049;-69
2023/06/06 11:16:43;;;;;;;1.10;1.10;;;;;;;31.02;38.32;91211.66;5001084;28;20040;-70
2023/06/06 11:19:17;;;;;;;1.30;1.10;;;;;;;30.29;38.27;91216.34;4983954;28;20057;-68
2023/06/06 11:21:44;;;;;;;1.52;1.40;;;;;;;30.41;39.48;91213.75;4984324;28;20181;-68
2023/06/06 11:24:10;;;;;;;1.15;1.15;;;;;;;30.44;36.76;91212.13;4991821;28;20108;-68
2023/06/06 11:26:38;;;;;;;1.52;1.42;;;;;;;30.63;36.43;91219.59;4991584;28;20037;-68
2023/06/06 11:29:07;;;;;;;0.70;0.70;;;;;;;29.47;39.00;91207.72;4991947;28;20053;-68
2023/06/06 11:31:35;;;;;;;1.40;1.30;;;;;;;29.72;38.98;91211.97;4992156;28;20113;-69
2023/06/06 11:34:11;;;;;;;1.35;1.25;;;;;;;28.30;40.08;91207.53;4991735;28;20030;-68